createdAt,value
2018-09-09T00:02:02.672Z,13.26
2018-09-09T00:04:37.512Z,13.27
2018-09-09T00:07:12.208Z,13.35
2018-09-09T00:09:47.539Z,13.36
2018-09-09T00:12:22.885Z,13.28
2018-09-09T00:14:57.199Z,13.28
2018-09-09T00:17:31.684Z,13.31
2018-09-09T00:20:06.568Z,13.26
2018-09-09T00:22:41.209Z,13.24
2018-09-09T00:25:16.219Z,13.14
2018-09-09T00:27:50.704Z,13.10
2018-09-09T00:30:25.108Z,13.03
2018-09-09T00:32:59.392Z,12.98
2018-09-09T00:35:33.677Z,12.93
2018-09-09T00:38:08.207Z,12.90
2018-09-09T00:40:43.025Z,12.91
2018-09-09T00:43:17.844Z,12.92
2018-09-09T00:45:53.144Z,12.89
2018-09-09T00:48:27.812Z,12.82
2018-09-09T00:51:08.025Z,12.76
2018-09-09T00:53:43.264Z,12.70
2018-09-09T00:56:17.712Z,12.67
2018-09-09T00:58:52.611Z,12.66
2018-09-09T01:01:27.467Z,12.67
2018-09-09T01:04:02.068Z,12.62
2018-09-09T01:06:36.568Z,12.60
2018-09-09T01:09:12.040Z,12.54
2018-09-09T01:11:46.943Z,12.52
2018-09-09T01:14:21.556Z,12.49
2018-09-09T01:16:56.053Z,12.44
2018-09-09T01:19:30.467Z,12.42
2018-09-09T01:22:05.029Z,12.42
2018-09-09T01:24:39.781Z,12.37
2018-09-09T01:27:14.244Z,12.39
2018-09-09T01:29:48.971Z,12.35
2018-09-09T01:32:23.896Z,12.32
2018-09-09T01:34:58.300Z,12.32
2018-09-09T01:37:32.783Z,12.32
2018-09-09T01:40:07.420Z,12.29
2018-09-09T01:42:41.896Z,12.26
2018-09-09T01:45:16.178Z,12.25
2018-09-09T01:47:50.955Z,12.24
2018-09-09T01:50:25.724Z,12.25
2018-09-09T01:53:00.841Z,12.26
2018-09-09T01:55:35.220Z,12.23
2018-09-09T01:58:09.740Z,12.34
2018-09-09T02:00:44.376Z,12.48
2018-09-09T02:03:19.539Z,12.43
2018-09-09T02:05:54.168Z,12.34
2018-09-09T02:08:28.563Z,12.30
2018-09-09T02:11:03.156Z,12.33
2018-09-09T02:13:37.628Z,12.33
2018-09-09T02:16:12.084Z,12.29
2018-09-09T02:18:47.156Z,12.27
2018-09-09T02:21:21.663Z,12.25
2018-09-09T02:23:56.500Z,12.23
2018-09-09T02:26:30.913Z,12.23
2018-09-09T02:29:05.995Z,12.24
2018-09-09T02:31:40.384Z,12.24
2018-09-09T02:34:14.673Z,12.30
2018-09-09T02:36:49.283Z,12.37
2018-09-09T02:39:23.940Z,12.30
2018-09-09T02:41:58.376Z,12.24
2018-09-09T02:44:32.819Z,12.22
2018-09-09T02:47:07.111Z,12.21
2018-09-09T02:49:41.415Z,12.17
2018-09-09T02:52:16.155Z,12.14
2018-09-09T02:54:50.524Z,12.17
2018-09-09T02:57:25.156Z,12.20
2018-09-09T03:00:00.144Z,12.14
2018-09-09T03:02:34.567Z,12.14
2018-09-09T03:05:09.019Z,12.07
2018-09-09T03:07:43.456Z,12.05
2018-09-09T03:10:18.041Z,12.03
2018-09-09T03:12:52.420Z,12.06
2018-09-09T03:15:26.838Z,12.04
2018-09-09T03:18:01.513Z,12.00
2018-09-09T03:20:36.129Z,12.05
2018-09-09T03:23:10.591Z,12.03
2018-09-09T03:25:44.907Z,12.01
2018-09-09T03:28:19.365Z,12.02
2018-09-09T03:30:54.691Z,12.01
2018-09-09T03:33:29.095Z,11.96
2018-09-09T03:36:03.455Z,11.99
2018-09-09T03:38:38.009Z,11.96
2018-09-09T03:41:12.776Z,11.93
2018-09-09T03:43:47.415Z,11.94
2018-09-09T03:46:21.943Z,11.92
2018-09-09T03:48:56.367Z,11.95
2018-09-09T03:51:30.691Z,11.95
2018-09-09T03:54:05.475Z,11.89
2018-09-09T03:56:39.842Z,11.85
2018-09-09T03:59:14.222Z,11.87
2018-09-09T04:01:48.667Z,11.79
2018-09-09T04:04:22.967Z,11.75
2018-09-09T04:06:57.308Z,11.72
2018-09-09T04:09:31.573Z,11.68
2018-09-09T04:12:05.886Z,11.65
2018-09-09T04:14:40.748Z,11.64
2018-09-09T04:17:15.184Z,11.60
2018-09-09T04:19:49.616Z,11.58
2018-09-09T04:22:24.284Z,11.57
2018-09-09T04:24:58.772Z,11.57
2018-09-09T04:27:33.227Z,11.57
2018-09-09T04:30:07.718Z,11.58
2018-09-09T04:32:42.535Z,11.56
2018-09-09T04:35:17.225Z,11.55
2018-09-09T04:37:51.692Z,11.51
2018-09-09T04:40:26.012Z,11.51
2018-09-09T04:43:00.863Z,11.56
2018-09-09T04:45:35.995Z,11.52
2018-09-09T04:48:10.283Z,11.47
2018-09-09T04:50:44.707Z,11.46
2018-09-09T04:53:19.279Z,11.47
2018-09-09T04:55:53.964Z,11.46
2018-09-09T04:58:28.403Z,11.48
2018-09-09T05:01:03.091Z,11.49
2018-09-09T05:03:37.526Z,11.45
2018-09-09T05:06:12.624Z,11.44
2018-09-09T05:08:46.911Z,11.43
2018-09-09T05:11:21.612Z,11.43
2018-09-09T05:13:56.328Z,11.44
2018-09-09T05:16:30.825Z,11.47
2018-09-09T05:19:05.748Z,11.51
2018-09-09T05:21:40.489Z,11.53
2018-09-09T05:24:15.284Z,11.59
2018-09-09T05:26:49.872Z,11.63
2018-09-09T05:29:24.260Z,11.67
2018-09-09T05:31:59.511Z,11.72
2018-09-09T05:34:33.901Z,11.76
2018-09-09T05:37:08.428Z,11.78
2018-09-09T05:39:43.935Z,11.86
2018-09-09T05:42:18.807Z,11.96
2018-09-09T05:44:53.500Z,12.00
2018-09-09T05:47:27.865Z,12.08
2018-09-09T05:50:02.679Z,12.15
2018-09-09T05:52:37.111Z,12.20
2018-09-09T05:55:11.718Z,12.28
2018-09-09T05:57:46.833Z,12.34
2018-09-09T06:00:22.068Z,12.40
2018-09-09T06:02:56.508Z,12.47
2018-09-09T06:05:31.791Z,12.51
2018-09-09T06:08:06.545Z,12.61
2018-09-09T06:10:41.391Z,12.72
2018-09-09T06:13:16.041Z,12.85
2018-09-09T06:15:50.710Z,12.97
2018-09-09T06:18:31.849Z,13.08
2018-09-09T06:21:09.620Z,13.21
2018-09-09T06:23:44.296Z,13.36
2018-09-09T06:26:18.872Z,13.45
2018-09-09T06:28:53.421Z,13.61
2018-09-09T06:31:27.790Z,13.71
2018-09-09T06:34:02.208Z,13.84
2018-09-09T06:36:36.916Z,13.95
2018-09-09T06:39:12.324Z,14.10
2018-09-09T06:41:47.039Z,14.22
2018-09-09T06:44:21.556Z,14.36
2018-09-09T06:46:56.201Z,14.47
2018-09-09T06:49:30.997Z,14.56
2018-09-09T06:52:06.153Z,14.70
2018-09-09T06:54:40.549Z,14.80
2018-09-09T06:57:15.093Z,14.91
2018-09-09T06:59:49.875Z,14.98
2018-09-09T07:02:24.482Z,15.09
2018-09-09T07:04:59.332Z,15.17
2018-09-09T07:07:34.080Z,15.33
2018-09-09T07:10:08.575Z,15.43
2018-09-09T07:12:43.405Z,15.59
2018-09-09T07:15:17.813Z,15.78
2018-09-09T07:17:52.199Z,15.88
2018-09-09T07:20:27.136Z,16.02
2018-09-09T07:23:01.645Z,16.16
2018-09-09T07:25:36.036Z,16.30
2018-09-09T07:28:10.352Z,16.43
2018-09-09T07:30:44.846Z,16.60
2018-09-09T07:33:19.295Z,16.67
2018-09-09T07:35:53.802Z,16.82
2018-09-09T07:38:28.236Z,16.98
2018-09-09T07:41:02.603Z,17.11
2018-09-09T07:43:37.060Z,17.30
2018-09-09T07:46:11.456Z,17.34
2018-09-09T07:48:45.909Z,17.42
2018-09-09T07:51:20.549Z,17.47
2018-09-09T07:53:54.957Z,17.56
2018-09-09T07:56:29.464Z,17.78
2018-09-09T07:59:03.915Z,17.92
2018-09-09T08:01:38.332Z,17.97
2018-09-09T08:04:12.856Z,18.11
2018-09-09T08:06:47.260Z,18.29
2018-09-09T08:09:22.472Z,18.49
2018-09-09T08:11:56.981Z,18.73
2018-09-09T08:14:31.987Z,18.87
2018-09-09T08:17:06.713Z,19.02
2018-09-09T08:19:41.183Z,19.16
2018-09-09T08:22:15.508Z,19.30
2018-09-09T08:24:49.957Z,19.44
2018-09-09T08:27:24.299Z,19.62
2018-09-09T08:29:58.611Z,19.94
2018-09-09T08:32:33.156Z,20.08
2018-09-09T08:35:07.930Z,20.32
2018-09-09T08:37:42.483Z,20.63
2018-09-09T08:40:16.944Z,20.94
2018-09-09T08:42:54.689Z,21.06
2018-09-09T08:45:29.589Z,20.93
2018-09-09T08:48:05.123Z,20.88
2018-09-09T08:50:39.707Z,20.93
2018-09-09T08:53:14.257Z,21.25
2018-09-09T08:55:48.958Z,21.55
2018-09-09T08:58:23.777Z,21.72
2018-09-09T09:00:58.121Z,21.93
2018-09-09T09:03:32.559Z,22.30
2018-09-09T09:06:07.155Z,22.54
2018-09-09T09:08:41.873Z,22.77
2018-09-09T09:13:50.400Z,23.07
2018-09-09T09:16:24.859Z,23.26
2018-09-09T09:18:59.392Z,23.23
2018-09-09T09:21:34.573Z,23.16
2018-09-09T09:24:09.138Z,23.25
2018-09-09T09:26:44.628Z,23.49
2018-09-09T09:29:19.279Z,23.75
2018-09-09T09:31:54.128Z,23.81
2018-09-09T09:34:28.482Z,23.93
2018-09-09T09:37:03.316Z,23.80
2018-09-09T09:39:37.757Z,23.78
2018-09-09T09:42:12.239Z,23.73
2018-09-09T09:44:46.764Z,23.88
2018-09-09T09:47:21.470Z,24.33
2018-09-09T09:49:55.939Z,24.61
2018-09-09T09:52:33.625Z,24.97
2018-09-09T09:55:08.535Z,25.03
2018-09-09T09:57:43.313Z,25.37
2018-09-09T10:00:23.515Z,25.44
2018-09-09T10:02:58.500Z,25.75
2018-09-09T10:05:33.689Z,25.90
2018-09-09T10:08:09.468Z,26.34
2018-09-09T10:10:44.304Z,26.57
2018-09-09T10:13:18.774Z,26.85
2018-09-09T10:15:53.183Z,27.05
2018-09-09T10:18:27.837Z,26.96
2018-09-09T10:21:05.542Z,26.82
2018-09-09T10:23:42.474Z,26.76
2018-09-09T10:26:17.203Z,26.67
2018-09-09T10:28:51.624Z,26.41
2018-09-09T10:31:26.317Z,26.15
2018-09-09T10:34:00.834Z,26.16
2018-09-09T10:36:35.907Z,26.34
2018-09-09T10:39:11.579Z,26.14
2018-09-09T10:41:46.044Z,25.91
2018-09-09T10:44:20.429Z,26.10
2018-09-09T10:46:55.217Z,26.11
2018-09-09T10:49:30.038Z,26.46
2018-09-09T10:52:04.650Z,26.65
2018-09-09T10:54:38.904Z,26.59
2018-09-09T10:57:13.924Z,26.68
2018-09-09T10:59:49.020Z,26.59
2018-09-09T11:02:23.532Z,26.46
2018-09-09T11:04:59.234Z,26.34
2018-09-09T11:07:34.439Z,26.22
2018-09-09T11:10:08.838Z,26.39
2018-09-09T11:12:46.625Z,26.66
2018-09-09T11:15:25.051Z,26.52
2018-09-09T11:18:00.501Z,26.57
2018-09-09T11:20:35.040Z,26.64
2018-09-09T11:23:13.343Z,26.81
2018-09-09T11:25:48.213Z,27.26
2018-09-09T11:28:22.533Z,27.42
2018-09-09T11:30:57.052Z,27.58
2018-09-09T11:36:21.608Z,27.86
2018-09-09T11:38:57.100Z,27.75
2018-09-09T11:41:35.395Z,27.39
2018-09-09T11:44:10.400Z,27.05
2018-09-09T11:46:44.811Z,26.92
2018-09-09T11:49:25.902Z,26.77
2018-09-09T11:52:06.246Z,26.82
2018-09-09T11:54:42.830Z,26.88
2018-09-09T11:57:18.261Z,27.09
2018-09-09T12:02:35.412Z,27.13
2018-09-09T12:05:10.429Z,26.95
2018-09-09T12:07:45.101Z,27.12
2018-09-09T12:10:19.983Z,27.21
2018-09-09T12:12:55.208Z,27.34
2018-09-09T12:15:30.149Z,27.06
2018-09-09T12:18:04.793Z,27.06
2018-09-09T12:20:39.367Z,27.30
2018-09-09T12:23:13.980Z,27.52
2018-09-09T12:25:49.027Z,27.53
2018-09-09T12:28:23.564Z,27.13
2018-09-09T12:30:57.963Z,26.83
2018-09-09T12:33:34.638Z,26.80
2018-09-09T12:36:11.094Z,26.78
2018-09-09T12:38:51.958Z,27.06
2018-09-09T12:41:26.828Z,27.16
2018-09-09T12:46:10.063Z,27.19
2018-09-09T12:48:49.902Z,27.20
2018-09-09T12:51:24.871Z,27.45
2018-09-09T12:53:59.812Z,27.67
2018-09-09T12:56:35.432Z,27.73
2018-09-09T12:59:10.416Z,27.73
2018-09-09T13:01:44.744Z,27.91
2018-09-09T13:04:19.230Z,28.20
2018-09-09T13:06:53.829Z,28.30
2018-09-09T13:09:29.084Z,28.06
2018-09-09T13:12:03.821Z,28.07
2018-09-09T13:14:38.247Z,28.18
2018-09-09T13:17:12.529Z,28.01
2018-09-09T13:19:46.910Z,27.67
2018-09-09T13:22:21.353Z,27.47
2018-09-09T13:24:55.846Z,27.72
2018-09-09T13:27:30.228Z,27.97
2018-09-09T13:30:04.645Z,28.11
2018-09-09T13:32:40.070Z,27.84
2018-09-09T13:35:14.569Z,27.38
2018-09-09T13:37:49.189Z,26.76
2018-09-09T13:40:28.112Z,26.46
2018-09-09T13:43:03.936Z,26.39
2018-09-09T13:45:38.700Z,26.54
2018-09-09T13:48:13.765Z,26.66
2018-09-09T13:50:49.139Z,26.88
2018-09-09T13:53:24.546Z,27.49
2018-09-09T13:55:59.845Z,27.98
2018-09-09T13:58:34.644Z,28.43
2018-09-09T14:01:09.309Z,28.33
2018-09-09T14:03:44.202Z,28.01
2018-09-09T14:06:18.871Z,27.95
2018-09-09T14:08:53.461Z,28.05
2018-09-09T14:11:28.185Z,27.89
2018-09-09T14:14:03.068Z,27.76
2018-09-09T14:16:37.583Z,27.82
2018-09-09T14:19:12.200Z,27.87
2018-09-09T14:21:47.001Z,27.84
2018-09-09T14:24:21.520Z,28.12
2018-09-09T14:26:57.073Z,28.23
2018-09-09T14:29:31.876Z,27.99
2018-09-09T14:32:06.475Z,27.78
2018-09-09T14:34:41.149Z,27.77
2018-09-09T14:37:16.084Z,27.49
2018-09-09T14:39:50.653Z,26.69
2018-09-09T14:42:25.213Z,26.12
2018-09-09T14:44:59.812Z,25.86
2018-09-09T14:47:34.672Z,26.10
2018-09-09T14:50:10.100Z,26.35
2018-09-09T14:52:44.471Z,26.59
2018-09-09T14:55:19.040Z,26.69
2018-09-09T14:57:53.824Z,26.82
2018-09-09T15:00:29.010Z,26.74
2018-09-09T15:03:03.456Z,26.82
2018-09-09T15:05:38.254Z,27.06
2018-09-09T15:08:12.879Z,27.08
2018-09-09T15:10:47.476Z,27.08
2018-09-09T15:13:22.594Z,27.00
2018-09-09T15:15:57.289Z,26.99
2018-09-09T15:18:32.640Z,26.88
2018-09-09T15:21:07.015Z,26.87
2018-09-09T15:23:41.529Z,26.93
2018-09-09T15:26:16.372Z,26.94
2018-09-09T15:28:50.836Z,26.87
2018-09-09T15:31:25.383Z,26.70
2018-09-09T15:34:00.472Z,26.63
2018-09-09T15:36:34.759Z,26.69
2018-09-09T15:39:09.512Z,26.50
2018-09-09T15:41:51.543Z,26.42
2018-09-09T15:44:26.104Z,26.17
2018-09-09T15:47:03.449Z,26.19
2018-09-09T15:53:14.580Z,26.18
2018-09-09T15:55:49.571Z,26.03
2018-09-09T15:58:24.100Z,25.92
2018-09-09T16:00:58.941Z,25.79
2018-09-09T16:03:33.440Z,25.58
2018-09-09T16:06:08.126Z,25.53
2018-09-09T16:08:50.163Z,25.39
2018-09-09T16:11:24.931Z,25.22
2018-09-09T16:13:59.725Z,25.08
2018-09-09T16:16:34.445Z,24.99
2018-09-09T16:19:08.820Z,24.77
2018-09-09T16:21:43.529Z,24.64
2018-09-09T16:24:18.115Z,24.56
2018-09-09T16:26:53.052Z,24.33
2018-09-09T16:29:27.713Z,24.14
2018-09-09T16:32:02.394Z,24.06
2018-09-09T16:34:37.051Z,23.94
2018-09-09T16:37:11.989Z,23.79
2018-09-09T16:39:46.728Z,23.58
2018-09-09T16:42:21.261Z,23.46
2018-09-09T16:44:56.967Z,23.39
2018-09-09T16:47:32.735Z,23.19
2018-09-09T16:50:07.365Z,23.02
2018-09-09T16:52:42.456Z,22.86
2018-09-09T16:55:17.253Z,22.71
2018-09-09T16:57:53.758Z,22.58
2018-09-09T17:00:28.504Z,22.47
2018-09-09T17:03:04.618Z,22.33
2018-09-09T17:05:39.552Z,22.28
2018-09-09T17:08:14.050Z,22.12
2018-09-09T17:10:48.711Z,21.98
2018-09-09T17:13:24.434Z,21.85
2018-09-09T17:16:03.132Z,21.77
2018-09-09T17:18:38.156Z,21.62
2018-09-09T17:21:18.919Z,21.46
2018-09-09T17:23:53.737Z,21.38
2018-09-09T17:26:28.166Z,21.21
2018-09-09T17:29:03.693Z,21.06
2018-09-09T17:31:38.112Z,20.97
2018-09-09T17:34:12.561Z,20.78
2018-09-09T17:36:46.971Z,20.62
2018-09-09T17:39:21.384Z,20.47
2018-09-09T17:41:56.440Z,20.35
2018-09-09T17:44:31.229Z,20.38
2018-09-09T17:47:06.364Z,20.28
2018-09-09T17:49:40.663Z,20.20
2018-09-09T17:52:15.448Z,20.10
2018-09-09T17:54:49.972Z,20.01
2018-09-09T17:57:24.251Z,19.92
2018-09-09T17:59:59.045Z,19.83
2018-09-09T18:02:33.473Z,19.73
2018-09-09T18:05:09.088Z,19.60
2018-09-09T18:07:43.492Z,19.48
2018-09-09T18:10:18.157Z,19.37
2018-09-09T18:12:52.589Z,19.23
2018-09-09T18:15:27.154Z,19.09
2018-09-09T18:18:02.510Z,19.11
2018-09-09T18:20:37.323Z,19.00
2018-09-09T18:23:14.641Z,18.88
2018-09-09T18:25:50.713Z,18.79
2018-09-09T18:28:26.271Z,18.70
2018-09-09T18:31:02.491Z,18.61
2018-09-09T18:33:37.124Z,18.57
2018-09-09T18:36:12.016Z,18.50
2018-09-09T18:38:46.561Z,18.41
2018-09-09T18:41:21.984Z,18.35
2018-09-09T18:43:56.588Z,18.31
2018-09-09T18:46:31.135Z,18.28
2018-09-09T18:49:06.301Z,18.20
2018-09-09T18:51:42.613Z,18.18
2018-09-09T18:54:17.782Z,18.13
2018-09-09T18:56:52.842Z,18.07
2018-09-09T18:59:27.846Z,17.96
2018-09-09T19:02:03.163Z,17.87
2018-09-09T19:04:37.689Z,17.82
2018-09-09T19:07:12.256Z,17.72
2018-09-09T19:09:46.923Z,17.75
2018-09-09T19:12:21.343Z,17.65
2018-09-09T19:14:55.796Z,17.57
2018-09-09T19:17:30.240Z,17.51
2018-09-09T19:20:07.928Z,17.43
2018-09-09T19:22:42.424Z,17.36
2018-09-09T19:25:17.128Z,17.28
2018-09-09T19:27:51.905Z,17.23
2018-09-09T19:30:26.353Z,17.17
2018-09-09T19:33:00.707Z,17.12
2018-09-09T19:35:35.071Z,17.05
2018-09-09T19:38:09.500Z,17.07
2018-09-09T19:40:44.573Z,16.96
2018-09-09T19:43:19.016Z,17.06
2018-09-09T19:45:53.728Z,17.03
2018-09-09T19:48:28.400Z,16.96
2018-09-09T19:51:03.291Z,16.84
2018-09-09T19:53:41.773Z,16.78
2018-09-09T19:56:17.245Z,16.72
2018-09-09T19:58:52.080Z,16.70
2018-09-09T20:01:27.057Z,16.71
2018-09-09T20:04:01.567Z,16.77
2018-09-09T20:06:36.184Z,16.68
2018-09-09T20:09:11.709Z,16.74
2018-09-09T20:11:46.828Z,16.69
2018-09-09T20:14:21.465Z,16.78
2018-09-09T20:16:56.001Z,16.75
2018-09-09T20:19:30.936Z,16.64
2018-09-09T20:22:08.075Z,16.56
2018-09-09T20:24:42.397Z,16.50
2018-09-09T20:27:16.831Z,16.44
2018-09-09T20:29:51.122Z,16.40
2018-09-09T20:32:25.502Z,16.32
2018-09-09T20:34:59.993Z,16.22
2018-09-09T20:37:34.442Z,16.19
2018-09-09T20:40:09.460Z,16.12
2018-09-09T20:42:44.232Z,16.09
2018-09-09T20:45:18.796Z,16.07
2018-09-09T20:47:53.333Z,16.04
2018-09-09T20:50:27.976Z,16.01
2018-09-09T20:53:02.816Z,16.02
2018-09-09T20:55:37.245Z,15.98
2018-09-09T20:58:14.166Z,16.00
2018-09-09T21:00:48.734Z,15.95
2018-09-09T21:03:24.062Z,15.90
2018-09-09T21:05:58.888Z,15.81
2018-09-09T21:08:38.112Z,15.80
2018-09-09T21:11:13.118Z,15.70
2018-09-09T21:13:55.270Z,15.68
2018-09-09T21:16:30.162Z,15.67
2018-09-09T21:19:05.085Z,15.73
2018-09-09T21:21:40.338Z,15.76
2018-09-09T21:24:15.610Z,15.65
2018-09-09T21:26:51.452Z,15.58
2018-09-09T21:29:26.054Z,15.53
2018-09-09T21:32:00.795Z,15.51
2018-09-09T21:34:35.569Z,15.49
2018-09-09T21:37:11.866Z,15.43
2018-09-09T21:39:46.761Z,15.42
2018-09-09T21:42:21.176Z,15.38
2018-09-09T21:44:55.970Z,15.40
2018-09-09T21:47:30.668Z,15.33
2018-09-09T21:50:05.434Z,15.33
2018-09-09T21:52:40.068Z,15.28
2018-09-09T21:55:14.717Z,15.30
2018-09-09T21:57:49.138Z,15.24
2018-09-09T22:00:23.499Z,15.17
2018-09-09T22:02:58.297Z,15.17
2018-09-09T22:05:32.687Z,15.12
2018-09-09T22:08:07.082Z,15.09
2018-09-09T22:10:41.509Z,15.06
2018-09-09T22:13:15.932Z,15.09
2018-09-09T22:15:54.446Z,15.08
2018-09-09T22:18:29.025Z,15.03
2018-09-09T22:21:03.863Z,14.97
2018-09-09T22:23:39.562Z,15.02
2018-09-09T22:26:16.436Z,14.95
2018-09-09T22:28:51.575Z,14.93
2018-09-09T22:31:25.973Z,14.90
2018-09-09T22:34:00.248Z,14.90
2018-09-09T22:36:34.677Z,14.85
2018-09-09T22:39:11.028Z,14.82
2018-09-09T22:41:45.717Z,14.84
2018-09-09T22:44:22.232Z,14.77
2018-09-09T22:46:58.006Z,14.72
2018-09-09T22:49:32.410Z,14.70
2018-09-09T22:52:07.794Z,14.69
2018-09-09T22:54:42.088Z,14.67
2018-09-09T22:57:19.295Z,14.70
2018-09-09T22:59:53.777Z,14.72
2018-09-09T23:02:28.528Z,14.73
2018-09-09T23:05:03.004Z,14.75
2018-09-09T23:07:37.807Z,14.74
2018-09-09T23:10:13.626Z,14.73
2018-09-09T23:12:48.080Z,14.74
2018-09-09T23:15:26.398Z,14.79
2018-09-09T23:18:01.071Z,14.78
2018-09-09T23:20:35.569Z,14.79
2018-09-09T23:23:10.435Z,14.81
2018-09-09T23:25:44.805Z,14.87
2018-09-09T23:28:19.587Z,14.87
2018-09-09T23:30:54.324Z,14.84
2018-09-09T23:33:28.988Z,14.78
2018-09-09T23:36:03.388Z,14.75
2018-09-09T23:38:38.449Z,14.68
2018-09-09T23:41:13.185Z,14.70
2018-09-09T23:43:47.667Z,14.66
2018-09-09T23:46:22.388Z,14.70
2018-09-09T23:48:56.631Z,14.64
2018-09-09T23:51:31.116Z,14.61
2018-09-09T23:54:05.775Z,14.57
2018-09-09T23:56:40.532Z,14.55
2018-09-09T23:59:15.284Z,14.56
